Flight Track Log - Related Links

Times and Time Zones

All times are in EST time to prevent confusion due to time zone crossing. See the FIN666 flight status page for this flight to view local times or setup timezone preferences in your user account.

Time Position Orientation Groundspeed Altitude Reporting Facility
EST Latitude Longitude Course Direction KTS MPH feet Rate Location/Type
Tue 07:15:00 AM 55.8453 13.1259 49° Northeast  Level Estimated
Tue 07:16:00 AM 55.9207 13.2838 50° Northeast  Level Estimated
Tue 07:17:00 AM 55.9958 13.4423 50° Northeast  Level Estimated
Tue 07:18:00 AM 56.0731 13.6061 50° Northeast  Level Estimated
Tue 07:19:00 AM 56.1501 13.7706 50° Northeast  Level Estimated
Tue 07:20:00 AM 56.2268 13.9358 50° Northeast  Level Estimated
Tue 07:21:00 AM 56.3034 14.1016 50° Northeast  Level Estimated
Tue 07:22:00 AM 56.3797 14.2681 50° Northeast  Level Estimated
Tue 07:23:00 AM 56.4558 14.4353 50° Northeast  Level Estimated
Tue 07:24:00 AM 56.5317 14.6032 51° Northeast  Level Estimated
Tue 07:25:00 AM 56.6074 14.7717 51° Northeast  Level Estimated
Tue 07:26:00 AM 56.6828 14.9409 51° Northeast  Level Estimated
Tue 07:27:00 AM 56.7580 15.1107 51° Northeast  Level Estimated
Tue 07:28:00 AM 56.8330 15.2813 51° Northeast  Level Estimated
Tue 07:29:00 AM 56.9077 15.4525 51° Northeast  Level Estimated
Tue 07:30:00 AM 56.9822 15.6244 51° Northeast  Level Estimated
Tue 07:31:00 AM 57.0565 15.7970 52° Northeast  Level Estimated
Tue 07:32:00 AM 57.1316 15.9729 52° Northeast  Level Estimated
Tue 07:33:00 AM 57.2065 16.1496 52° Northeast  Level Estimated
Tue 07:34:00 AM 57.2812 16.3269 52° Northeast  Level Estimated
Tue 07:35:00 AM 57.3556 16.5050 52° Northeast  Level Estimated
Tue 07:36:00 AM 57.4297 16.6838 52° Northeast  Level Estimated
Tue 07:37:00 AM 57.5036 16.8633 52° Northeast  Level Estimated
Tue 07:38:00 AM 57.5772 17.0436 53° Northeast  Level Estimated
Tue 07:39:00 AM 57.6506 17.2246 53° Northeast  Level Estimated
Tue 07:40:00 AM 57.7237 17.4063 53° Northeast  Level Estimated
Tue 07:41:00 AM 57.7966 17.5887 53° Northeast  Level Estimated
Tue 07:42:00 AM 57.8692 17.7719 53° Northeast  Level Estimated
Tue 07:43:00 AM 57.9415 17.9558 53° Northeast  Level Estimated
Tue 07:44:00 AM 58.0136 18.1405 54° Northeast  Level Estimated
Tue 07:45:00 AM 58.0854 18.3259 54° Northeast  Level Estimated
Tue 07:46:00 AM 58.1569 18.5121 54° Northeast  Level Estimated
Tue 07:47:00 AM 58.2281 18.6989 54° Northeast  Level Estimated
Tue 07:48:00 AM 58.2991 18.8866 54° Northeast  Level Estimated
Tue 07:49:00 AM 58.3698 19.0750 54° Northeast  Level Estimated
Tue 07:50:00 AM 58.4402 19.2642 55° Northeast  Level Estimated
Tue 07:51:00 AM 58.5104 19.4541 55° Northeast  Level Estimated
Tue 07:52:00 AM 58.5802 19.6448 55° Northeast  Level Estimated
Tue 07:53:00 AM 58.6498 19.8362 55° Northeast  Level Estimated
Tue 07:54:00 AM 58.7191 20.0284 55° Northeast  Level Estimated
Tue 07:55:00 AM 58.7881 20.2214 55° Northeast  Level Estimated
Tue 07:56:00 AM 58.8568 20.4151 56° Northeast  Level Estimated
Tue 07:57:00 AM 58.9252 20.6096 56° Northeast  Level Estimated
Tue 07:58:00 AM 58.9934 20.8049 56° Northeast  Level Estimated
Tue 07:59:00 AM 59.0612 21.0009 56° Northeast  Level Estimated
Tue 08:00:00 AM 59.1287 21.1978 56° Northeast  Level Estimated
Tue 08:01:00 AM 59.1960 21.3953 56° Northeast  Level Estimated
Tue 08:02:00 AM 59.2629 21.5937 57° Northeast  Level Estimated
Tue 08:03:00 AM 59.3296 21.7929 57° Northeast  Level Estimated
Tue 08:04:00 AM 59.3959 21.9928 57° Northeast  Level Estimated
Tue 08:05:00 AM 59.4619 22.1935 57° Northeast  Level Estimated
Tue 08:06:00 AM 59.5276 22.3950 57° Northeast  Level Estimated
Tue 08:07:00 AM 59.5930 22.5973 57° Northeast  Level Estimated
Tue 08:08:00 AM 59.6581 22.8004 58° Northeast  Level Estimated
Tue 08:09:00 AM 59.7229 23.0042 58° Northeast  Level Estimated
Tue 08:10:00 AM 59.7874 23.2089 58° Northeast  Level Estimated
Tue 08:11:00 AM 59.8515 23.4143 58° Northeast  Level Estimated
Tue 08:12:00 AM 59.9153 23.6206 58° Northeast  Level Estimated
Tue 08:13:00 AM 59.9788 23.8276 58° Northeast  Level Estimated
Tue 08:14:00 AM 60.0420 24.0354 59° Northeast  Level Estimated
Tue 08:15:00 AM 60.1048 24.2440 59° Northeast  Level Estimated
Tue 08:16:00 AM 60.1674 24.4534 59° Northeast  Level Estimated
Tue 08:17:00 AM 60.2295 24.6636 59° Northeast  Level Estimated
Tue 08:18:00 AM 60.2914 24.8746 59° Northeast  Level Estimated
Tue 08:19:00 AM 60.3172 24.9633 60° Northeast  Level Estimated
Tue 08:20:00 AM 60.3172 24.9633 37° Northeast  Level Estimated
Tue 08:21:00 AM 60.3172 24.9633 37° Northeast  Level Estimated
Tue 08:22:00 AM 60.3172 24.9633 37° Northeast  Level Estimated
Tue 08:23:00 AM 60.3172 24.9633 37° Northeast  Level Estimated
Tue 08:24:00 AM 60.3172 24.9633 37° Northeast  Level Estimated
Tue 08:25:00 AM 60.3172 24.9633 37° Northeast  Level Estimated
Tue 08:26:00 AM 60.3172 24.9633 37° Northeast  Level Estimated
Tue 08:27:00 AM 60.3172 24.9633 37° Northeast  Level Estimated
Tue 08:28:00 AM 60.3172 24.9633 37° Northeast  Level Estimated
Tue 08:29:00 AM 60.3172 24.9633 37° Northeast  Level Estimated
Tue 08:30:00 AM 60.3172 24.9633 37° Northeast  Level Estimated
Tue 08:31:00 AM 60.3172 24.9633 37° Northeast  Level Estimated
Tue 08:32:00 AM 60.3172 24.9633 37° Northeast  Level Estimated
Tue 08:33:00 AM 60.3172 24.9633 37° Northeast  Level Estimated
Tue 08:34:00 AM 60.3172 24.9633 37° Northeast  Level Estimated
Tue 08:35:00 AM 60.3172 24.9633 37° Northeast  Level Estimated
Tue 08:36:00 AM 60.3172 24.9633 37° Northeast  Level Estimated
Tue 08:37:00 AM 60.3172 24.9633 37° Northeast  Level Estimated

Login

Don't have an account? Register now (free) for customized features, flight alerts, and more!